Diboll, TX

9:08 PM CDT on September 02, 2014 (GMT -0500)
Angelina County | Change Station
CLOSE
Current Station
Airport
Location: Lufkin,
Elevation: 289 ft
Nearby Weather Stations

Elev 289 ft 31.24 °N, 94.75 °W | Updated 15 minutes ago

Clear
Clear
79 °F
Feels Like 79 °F
N
5
Wind Variable Wind from East

Today
High -- | Low -- °F
--% Chance of Precip.
Yesterday
High -- | Low -- °F
Precip. -- in
6:55 AM 7:41 PM
First Quarter, 57% visible
Pressure 29.96 in
Visibility 10.0 miles
Clouds Clear
Dew Point 75 °F
Humidity 88%
Rainfall 0.44 in
Snow Depth Not available.
UV 0 out of 12
Pollen 6.40 out of 12
Air Quality Not available.
Flu Activity Not available.
METAR KLFK 030153Z AUTO 09004KT 10SM CLR 26/24 A2998 RMK AO2 SLP145 T02610239 $

More Conditions Fewer Conditions

Pressure 29.96 in
Visibility 10.0 miles
Clouds Clear
Dew Point 75 °F
Humidity 88%
Rainfall 0.44 in
Snow Depth Not available.
UV 0 out of 12
Pollen 6.40 out of 12
Air Quality Not available.
Flu Activity Not available.
METAR KLFK 030153Z AUTO 09004KT 10SM CLR 26/24 A2998 RMK AO2 SLP145 T02610239 $

More Conditions Fewer Conditions

Nowcast | as of 7:16 PM CDT on September 2, 2014

A line of showers stretching from Etoile TX to Natchitoches la to Bosco la...will continue to move southward and gradually diminish in coverage this evening. Additional rainfall amounts of up to a quarter inch will be possible over the next couple of hours.

×

10-Day Weather Forecast

Almanac

Astronomy

Sep. 02, 2014 Rise Set
Actual Time 6:55 AM CDT 7:41 PM CDT
Civil Twilight 6:30 AM CDT 8:05 PM CDT
Nautical Twilight 6:01 AM CDT 8:34 PM CDT
Astronomical Twilight 5:32 AM CDT 9:04 PM CDT
Moon 2:13 PM CDT (9/2) 12:10 AM CDT (9/2)
Length of Visible Light 13h 34m
Length of Day
12h 45m
Tomorrow will be 1m 49s shorter.
First Quarter, 57% of the Moon is Illuminated
Today
First Quarter
Sep 8
Full
Sep 15
Last Quarter
Sep 24
New
Oct 1
First Quarter

Today's Extremes

State Highs State Lows

Community

WunderPhotos

Upload Photos

1,749,837 photos uploaded!

Nearby

Snow Depth

Station Depth Elevation
No new snow has been reported.

Earthquake Activity

City Distance Mag. Time & Date
No recent earthquake activity has been reported nearby.
Minimum magnitude displayed is 2.5.

Coastal Water Temperatures

Place Temperature
No Stations Reporting

Nearby Weather Stations